sensor_id;sensor_type;location;lat;lon;timestamp;temperature;humidity
20416;DHT22;10367;52.202;5.996;2022-09-03T00:00:12;15.70;82.90
20416;DHT22;10367;52.202;5.996;2022-09-03T00:02:43;15.70;83.20
20416;DHT22;10367;52.202;5.996;2022-09-03T00:05:19;15.60;83.20
20416;DHT22;10367;52.202;5.996;2022-09-03T00:07:56;15.60;83.30
20416;DHT22;10367;52.202;5.996;2022-09-03T00:10:33;15.60;83.40
20416;DHT22;10367;52.202;5.996;2022-09-03T00:13:04;15.60;83.60
20416;DHT22;10367;52.202;5.996;2022-09-03T00:15:38;15.60;83.70
20416;DHT22;10367;52.202;5.996;2022-09-03T00:18:09;15.50;83.80
20416;DHT22;10367;52.202;5.996;2022-09-03T00:20:44;15.50;84.10
20416;DHT22;10367;52.202;5.996;2022-09-03T00:23:19;15.40;84.40
20416;DHT22;10367;52.202;5.996;2022-09-03T00:25:53;15.40;84.60
20416;DHT22;10367;52.202;5.996;2022-09-03T00:28:26;15.30;84.80
20416;DHT22;10367;52.202;5.996;2022-09-03T00:31:04;15.30;84.90
20416;DHT22;10367;52.202;5.996;2022-09-03T00:33:34;15.30;85.10
20416;DHT22;10367;52.202;5.996;2022-09-03T00:36:12;15.20;85.40
20416;DHT22;10367;52.202;5.996;2022-09-03T00:38:43;15.20;85.70
20416;DHT22;10367;52.202;5.996;2022-09-03T00:41:22;15.10;85.90
20416;DHT22;10367;52.202;5.996;2022-09-03T00:44:21;15.10;86.20
20416;DHT22;10367;52.202;5.996;2022-09-03T00:46:59;15.00;86.40
20416;DHT22;10367;52.202;5.996;2022-09-03T00:49:38;14.90;87.50
20416;DHT22;10367;52.202;5.996;2022-09-03T00:52:16;14.90;87.00
20416;DHT22;10367;52.202;5.996;2022-09-03T00:54:57;14.90;87.20
20416;DHT22;10367;52.202;5.996;2022-09-03T00:57:37;14.80;87.50
20416;DHT22;10367;52.202;5.996;2022-09-03T01:00:12;14.80;87.80
20416;DHT22;10367;52.202;5.996;2022-09-03T01:02:50;14.70;88.20
20416;DHT22;10367;52.202;5.996;2022-09-03T01:05:56;14.60;88.50
20416;DHT22;10367;52.202;5.996;2022-09-03T01:08:42;14.60;88.60
20416;DHT22;10367;52.202;5.996;2022-09-03T01:11:25;14.60;88.90
20416;DHT22;10367;52.202;5.996;2022-09-03T01:14:04;14.60;89.20
20416;DHT22;10367;52.202;5.996;2022-09-03T01:16:39;14.60;89.40
20416;DHT22;10367;52.202;5.996;2022-09-03T01:19:22;14.50;89.90
20416;DHT22;10367;52.202;5.996;2022-09-03T01:22:08;14.40;90.20
20416;DHT22;10367;52.202;5.996;2022-09-03T01:25:05;14.30;90.30
20416;DHT22;10367;52.202;5.996;2022-09-03T01:27:45;14.30;90.40
20416;DHT22;10367;52.202;5.996;2022-09-03T01:30:18;14.20;90.70
20416;DHT22;10367;52.202;5.996;2022-09-03T01:32:52;14.20;90.90
20416;DHT22;10367;52.202;5.996;2022-09-03T01:35:26;14.20;91.00
20416;DHT22;10367;52.202;5.996;2022-09-03T01:38:08;14.20;91.10
20416;DHT22;10367;52.202;5.996;2022-09-03T01:40:44;14.20;91.30
20416;DHT22;10367;52.202;5.996;2022-09-03T01:43:29;14.10;91.40
20416;DHT22;10367;52.202;5.996;2022-09-03T01:46:08;14.00;91.60
20416;DHT22;10367;52.202;5.996;2022-09-03T01:48:46;14.00;91.80
20416;DHT22;10367;52.202;5.996;2022-09-03T01:51:21;14.00;92.00
20416;DHT22;10367;52.202;5.996;2022-09-03T01:54:21;13.90;92.10
20416;DHT22;10367;52.202;5.996;2022-09-03T01:57:14;14.00;92.40
20416;DHT22;10367;52.202;5.996;2022-09-03T02:00:07;14.00;92.60
20416;DHT22;10367;52.202;5.996;2022-09-03T02:02:39;14.00;92.70
20416;DHT22;10367;52.202;5.996;2022-09-03T02:05:12;14.00;92.80
20416;DHT22;10367;52.202;5.996;2022-09-03T02:07:43;14.00;93.00
20416;DHT22;10367;52.202;5.996;2022-09-03T02:10:14;14.00;93.10
20416;DHT22;10367;52.202;5.996;2022-09-03T02:12:46;14.00;93.30
20416;DHT22;10367;52.202;5.996;2022-09-03T02:15:18;13.90;93.40
20416;DHT22;10367;52.202;5.996;2022-09-03T02:17:50;13.90;93.80
20416;DHT22;10367;52.202;5.996;2022-09-03T02:20:24;13.80;94.00
20416;DHT22;10367;52.202;5.996;2022-09-03T02:22:55;13.70;94.40
20416;DHT22;10367;52.202;5.996;2022-09-03T02:25:29;13.70;94.70
20416;DHT22;10367;52.202;5.996;2022-09-03T02:28:00;13.70;94.80
20416;DHT22;10367;52.202;5.996;2022-09-03T02:30:29;13.70;95.00
20416;DHT22;10367;52.202;5.996;2022-09-03T02:33:00;13.70;95.20
20416;DHT22;10367;52.202;5.996;2022-09-03T02:35:29;13.70;95.30
20416;DHT22;10367;52.202;5.996;2022-09-03T02:38:08;13.60;95.70
20416;DHT22;10367;52.202;5.996;2022-09-03T02:40:37;13.50;96.00
20416;DHT22;10367;52.202;5.996;2022-09-03T02:43:12;13.50;96.40
20416;DHT22;10367;52.202;5.996;2022-09-03T02:45:44;13.50;96.70
20416;DHT22;10367;52.202;5.996;2022-09-03T02:48:19;13.40;97.00
20416;DHT22;10367;52.202;5.996;2022-09-03T02:50:50;13.30;97.30
20416;DHT22;10367;52.202;5.996;2022-09-03T02:53:18;13.20;97.70
20416;DHT22;10367;52.202;5.996;2022-09-03T02:55:47;13.20;98.10
20416;DHT22;10367;52.202;5.996;2022-09-03T02:58:16;13.20;98.40
20416;DHT22;10367;52.202;5.996;2022-09-03T03:00:44;13.20;98.50
20416;DHT22;10367;52.202;5.996;2022-09-03T03:03:16;13.20;98.70
20416;DHT22;10367;52.202;5.996;2022-09-03T03:05:47;13.20;98.90
20416;DHT22;10367;52.202;5.996;2022-09-03T03:08:16;13.20;99.10
20416;DHT22;10367;52.202;5.996;2022-09-03T03:10:48;13.10;99.30
20416;DHT22;10367;52.202;5.996;2022-09-03T03:13:18;13.10;99.60
20416;DHT22;10367;52.202;5.996;2022-09-03T03:15:46;13.10;99.90
20416;DHT22;10367;52.202;5.996;2022-09-03T03:18:16;13.00;99.90
20416;DHT22;10367;52.202;5.996;2022-09-03T03:20:46;13.10;99.90
20416;DHT22;10367;52.202;5.996;2022-09-03T03:23:15;13.00;99.90
20416;DHT22;10367;52.202;5.996;2022-09-03T03:25:44;12.80;99.90
20416;DHT22;10367;52.202;5.996;2022-09-03T03:28:13;12.80;99.90
20416;DHT22;10367;52.202;5.996;2022-09-03T03:30:42;12.80;99.90
20416;DHT22;10367;52.202;5.996;2022-09-03T03:33:13;12.90;99.90
20416;DHT22;10367;52.202;5.996;2022-09-03T03:35:43;12.90;99.90
20416;DHT22;10367;52.202;5.996;2022-09-03T03:38:12;12.90;99.90
20416;DHT22;10367;52.202;5.996;2022-09-03T03:40:40;12.90;99.90
20416;DHT22;10367;52.202;5.996;2022-09-03T03:43:09;12.90;99.90
20416;DHT22;10367;52.202;5.996;2022-09-03T03:45:38;12.70;99.90
20416;DHT22;10367;52.202;5.996;2022-09-03T03:48:06;12.80;99.90
20416;DHT22;10367;52.202;5.996;2022-09-03T03:50:36;12.80;99.90
20416;DHT22;10367;52.202;5.996;2022-09-03T03:53:06;12.80;99.90
20416;DHT22;10367;52.202;5.996;2022-09-03T03:55:34;12.80;99.90
20416;DHT22;10367;52.202;5.996;2022-09-03T03:58:03;12.80;99.90
20416;DHT22;10367;52.202;5.996;2022-09-03T04:00:31;12.70;99.90
20416;DHT22;10367;52.202;5.996;2022-09-03T04:03:04;12.50;99.90
20416;DHT22;10367;52.202;5.996;2022-09-03T04:05:32;12.40;99.90
20416;DHT22;10367;52.202;5.996;2022-09-03T04:08:01;12.50;99.90
20416;DHT22;10367;52.202;5.996;2022-09-03T04:10:31;12.50;99.90
20416;DHT22;10367;52.202;5.996;2022-09-03T04:13:00;12.50;99.90
20416;DHT22;10367;52.202;5.996;2022-09-03T04:15:29;12.60;99.90
20416;DHT22;10367;52.202;5.996;2022-09-03T04:17:57;12.50;99.90
20416;DHT22;10367;52.202;5.996;2022-09-03T04:20:27;12.50;99.90
20416;DHT22;10367;52.202;5.996;2022-09-03T04:22:59;12.40;99.90
20416;DHT22;10367;52.202;5.996;2022-09-03T04:25:28;12.40;99.90
20416;DHT22;10367;52.202;5.996;2022-09-03T04:27:58;12.50;99.90
20416;DHT22;10367;52.202;5.996;2022-09-03T04:30:28;12.50;99.90
20416;DHT22;10367;52.202;5.996;2022-09-03T04:32:57;12.50;99.90
20416;DHT22;10367;52.202;5.996;2022-09-03T04:35:26;12.50;99.90
20416;DHT22;10367;52.202;5.996;2022-09-03T04:38:02;12.40;99.90
20416;DHT22;10367;52.202;5.996;2022-09-03T04:40:30;12.50;99.90
20416;DHT22;10367;52.202;5.996;2022-09-03T04:43:00;12.40;99.90
20416;DHT22;10367;52.202;5.996;2022-09-03T04:45:29;12.40;99.90
20416;DHT22;10367;52.202;5.996;2022-09-03T04:47:59;12.40;99.90
20416;DHT22;10367;52.202;5.996;2022-09-03T04:50:28;12.40;99.90
20416;DHT22;10367;52.202;5.996;2022-09-03T04:52:59;12.40;99.90
20416;DHT22;10367;52.202;5.996;2022-09-03T04:55:34;12.40;99.90
20416;DHT22;10367;52.202;5.996;2022-09-03T04:58:04;12.40;99.90
20416;DHT22;10367;52.202;5.996;2022-09-03T05:00:35;12.40;99.90
20416;DHT22;10367;52.202;5.996;2022-09-03T05:03:04;12.40;99.90
20416;DHT22;10367;52.202;5.996;2022-09-03T05:05:32;12.40;99.90
20416;DHT22;10367;52.202;5.996;2022-09-03T05:08:02;12.30;99.90
20416;DHT22;10367;52.202;5.996;2022-09-03T05:10:32;12.20;99.90
20416;DHT22;10367;52.202;5.996;2022-09-03T05:13:02;12.20;99.90
20416;DHT22;10367;52.202;5.996;2022-09-03T05:15:32;12.30;99.90
20416;DHT22;10367;52.202;5.996;2022-09-03T05:18:02;12.30;99.90
20416;DHT22;10367;52.202;5.996;2022-09-03T05:20:31;12.40;99.90
20416;DHT22;10367;52.202;5.996;2022-09-03T05:23:01;12.50;99.90
20416;DHT22;10367;52.202;5.996;2022-09-03T05:25:30;12.60;99.90
20416;DHT22;10367;52.202;5.996;2022-09-03T05:27:59;12.60;99.90
20416;DHT22;10367;52.202;5.996;2022-09-03T05:30:29;12.60;99.90
20416;DHT22;10367;52.202;5.996;2022-09-03T05:32:59;12.60;99.90
20416;DHT22;10367;52.202;5.996;2022-09-03T05:35:28;12.70;99.90
20416;DHT22;10367;52.202;5.996;2022-09-03T05:37:57;12.70;99.90
20416;DHT22;10367;52.202;5.996;2022-09-03T05:40:27;12.80;99.90
20416;DHT22;10367;52.202;5.996;2022-09-03T05:42:57;12.80;99.90
20416;DHT22;10367;52.202;5.996;2022-09-03T05:45:26;12.90;99.90
20416;DHT22;10367;52.202;5.996;2022-09-03T05:48:00;12.90;99.90
20416;DHT22;10367;52.202;5.996;2022-09-03T05:50:29;12.90;99.90
20416;DHT22;10367;52.202;5.996;2022-09-03T05:52:58;13.00;99.90
20416;DHT22;10367;52.202;5.996;2022-09-03T05:55:26;13.00;99.90
20416;DHT22;10367;52.202;5.996;2022-09-03T05:57:56;13.00;99.90
20416;DHT22;10367;52.202;5.996;2022-09-03T06:00:24;13.00;99.90
20416;DHT22;10367;52.202;5.996;2022-09-03T06:02:54;12.90;99.90
20416;DHT22;10367;52.202;5.996;2022-09-03T06:05:24;13.00;99.90
20416;DHT22;10367;52.202;5.996;2022-09-03T06:07:53;13.00;99.90
20416;DHT22;10367;52.202;5.996;2022-09-03T06:10:22;13.10;99.90
20416;DHT22;10367;52.202;5.996;2022-09-03T06:12:56;13.20;99.90
20416;DHT22;10367;52.202;5.996;2022-09-03T06:15:30;13.30;99.90
20416;DHT22;10367;52.202;5.996;2022-09-03T06:17:59;13.30;99.90
20416;DHT22;10367;52.202;5.996;2022-09-03T06:20:29;13.40;99.90
20416;DHT22;10367;52.202;5.996;2022-09-03T06:23:03;13.40;99.90
20416;DHT22;10367;52.202;5.996;2022-09-03T06:25:31;13.50;99.90
20416;DHT22;10367;52.202;5.996;2022-09-03T06:28:00;13.60;99.90
20416;DHT22;10367;52.202;5.996;2022-09-03T06:30:29;13.70;99.90
20416;DHT22;10367;52.202;5.996;2022-09-03T06:32:58;13.80;99.90
20416;DHT22;10367;52.202;5.996;2022-09-03T06:35:26;13.90;99.90
20416;DHT22;10367;52.202;5.996;2022-09-03T06:38:00;14.10;99.90
20416;DHT22;10367;52.202;5.996;2022-09-03T06:40:29;14.20;99.90
20416;DHT22;10367;52.202;5.996;2022-09-03T06:42:57;14.40;99.90
20416;DHT22;10367;52.202;5.996;2022-09-03T06:45:29;14.50;99.90
20416;DHT22;10367;52.202;5.996;2022-09-03T06:47:58;14.60;99.90
20416;DHT22;10367;52.202;5.996;2022-09-03T06:50:26;14.80;99.90
20416;DHT22;10367;52.202;5.996;2022-09-03T06:53:02;14.90;99.90
20416;DHT22;10367;52.202;5.996;2022-09-03T06:55:31;15.00;99.90
20416;DHT22;10367;52.202;5.996;2022-09-03T06:58:00;15.10;99.90
20416;DHT22;10367;52.202;5.996;2022-09-03T07:00:29;15.20;99.90
20416;DHT22;10367;52.202;5.996;2022-09-03T07:02:58;15.20;99.90
20416;DHT22;10367;52.202;5.996;2022-09-03T07:05:26;15.20;99.90
20416;DHT22;10367;52.202;5.996;2022-09-03T07:07:55;15.30;99.90
20416;DHT22;10367;52.202;5.996;2022-09-03T07:10:25;15.30;99.90
20416;DHT22;10367;52.202;5.996;2022-09-03T07:12:54;15.40;99.90
20416;DHT22;10367;52.202;5.996;2022-09-03T07:15:23;15.40;99.90
20416;DHT22;10367;52.202;5.996;2022-09-03T07:17:52;15.60;99.90
20416;DHT22;10367;52.202;5.996;2022-09-03T07:20:21;15.60;99.90
20416;DHT22;10367;52.202;5.996;2022-09-03T07:22:49;15.70;99.90
20416;DHT22;10367;52.202;5.996;2022-09-03T07:25:22;15.80;99.90
20416;DHT22;10367;52.202;5.996;2022-09-03T07:27:52;15.90;99.90
20416;DHT22;10367;52.202;5.996;2022-09-03T07:30:21;16.00;99.90
20416;DHT22;10367;52.202;5.996;2022-09-03T07:32:52;16.10;99.90
20416;DHT22;10367;52.202;5.996;2022-09-03T07:35:22;16.20;99.90
20416;DHT22;10367;52.202;5.996;2022-09-03T07:37:51;16.30;99.90
20416;DHT22;10367;52.202;5.996;2022-09-03T07:40:21;16.40;99.90
20416;DHT22;10367;52.202;5.996;2022-09-03T07:42:57;16.40;99.90
20416;DHT22;10367;52.202;5.996;2022-09-03T07:45:30;16.50;99.90
20416;DHT22;10367;52.202;5.996;2022-09-03T07:47:59;16.60;99.90
20416;DHT22;10367;52.202;5.996;2022-09-03T07:50:28;16.80;99.90
20416;DHT22;10367;52.202;5.996;2022-09-03T07:53:00;17.00;99.90
20416;DHT22;10367;52.202;5.996;2022-09-03T07:55:28;17.20;99.90
20416;DHT22;10367;52.202;5.996;2022-09-03T07:57:58;17.40;99.90
20416;DHT22;10367;52.202;5.996;2022-09-03T08:00:27;17.50;99.90
20416;DHT22;10367;52.202;5.996;2022-09-03T08:02:56;17.60;99.90
20416;DHT22;10367;52.202;5.996;2022-09-03T08:05:27;17.80;99.90
20416;DHT22;10367;52.202;5.996;2022-09-03T08:07:58;18.00;99.90
20416;DHT22;10367;52.202;5.996;2022-09-03T08:10:29;18.10;99.70
20416;DHT22;10367;52.202;5.996;2022-09-03T08:13:00;18.30;99.30
20416;DHT22;10367;52.202;5.996;2022-09-03T08:15:31;18.40;99.20
20416;DHT22;10367;52.202;5.996;2022-09-03T08:18:00;18.50;98.70
20416;DHT22;10367;52.202;5.996;2022-09-03T08:20:32;18.60;98.50
20416;DHT22;10367;52.202;5.996;2022-09-03T08:23:01;18.60;98.40
20416;DHT22;10367;52.202;5.996;2022-09-03T08:25:30;18.90;98.00
20416;DHT22;10367;52.202;5.996;2022-09-03T08:28:00;19.10;97.40
20416;DHT22;10367;52.202;5.996;2022-09-03T08:30:29;19.10;97.20
20416;DHT22;10367;52.202;5.996;2022-09-03T08:33:00;19.30;96.80
20416;DHT22;10367;52.202;5.996;2022-09-03T08:35:31;19.40;96.50
20416;DHT22;10367;52.202;5.996;2022-09-03T08:38:00;19.40;96.40
20416;DHT22;10367;52.202;5.996;2022-09-03T08:40:37;19.50;96.30
20416;DHT22;10367;52.202;5.996;2022-09-03T08:43:14;19.70;95.90
20416;DHT22;10367;52.202;5.996;2022-09-03T08:45:45;19.80;95.20
20416;DHT22;10367;52.202;5.996;2022-09-03T08:48:17;20.10;94.60
20416;DHT22;10367;52.202;5.996;2022-09-03T08:50:53;20.20;94.20
20416;DHT22;10367;52.202;5.996;2022-09-03T08:53:32;20.20;94.10
20416;DHT22;10367;52.202;5.996;2022-09-03T08:56:07;20.40;93.80
20416;DHT22;10367;52.202;5.996;2022-09-03T08:58:38;20.60;93.40
20416;DHT22;10367;52.202;5.996;2022-09-03T09:01:14;20.70;92.80
20416;DHT22;10367;52.202;5.996;2022-09-03T09:03:52;20.80;92.50
20416;DHT22;10367;52.202;5.996;2022-09-03T09:06:31;20.80;92.20
20416;DHT22;10367;52.202;5.996;2022-09-03T09:09:11;20.80;92.10
20416;DHT22;10367;52.202;5.996;2022-09-03T09:11:51;21.00;91.30
20416;DHT22;10367;52.202;5.996;2022-09-03T09:14:28;21.00;91.10
20416;DHT22;10367;52.202;5.996;2022-09-03T09:17:07;21.20;90.90
20416;DHT22;10367;52.202;5.996;2022-09-03T09:19:46;21.20;90.80
20416;DHT22;10367;52.202;5.996;2022-09-03T09:22:23;21.30;90.40
20416;DHT22;10367;52.202;5.996;2022-09-03T09:24:57;21.60;90.00
20416;DHT22;10367;52.202;5.996;2022-09-03T09:27:27;21.70;89.30
20416;DHT22;10367;52.202;5.996;2022-09-03T09:29:58;21.80;88.70
20416;DHT22;10367;52.202;5.996;2022-09-03T09:32:29;22.10;87.60
20416;DHT22;10367;52.202;5.996;2022-09-03T09:34:58;22.20;87.10
20416;DHT22;10367;52.202;5.996;2022-09-03T09:37:26;22.30;86.80
20416;DHT22;10367;52.202;5.996;2022-09-03T09:39:57;22.50;86.40
20416;DHT22;10367;52.202;5.996;2022-09-03T09:42:27;22.60;85.00
20416;DHT22;10367;52.202;5.996;2022-09-03T09:45:08;22.70;84.30
20416;DHT22;10367;52.202;5.996;2022-09-03T09:47:38;22.90;82.50
20416;DHT22;10367;52.202;5.996;2022-09-03T09:50:16;23.00;82.70
20416;DHT22;10367;52.202;5.996;2022-09-03T09:52:59;23.20;82.30
20416;DHT22;10367;52.202;5.996;2022-09-03T09:55:31;23.30;82.20
20416;DHT22;10367;52.202;5.996;2022-09-03T09:58:04;23.30;81.30
20416;DHT22;10367;52.202;5.996;2022-09-03T10:00:54;23.50;80.60
20416;DHT22;10367;52.202;5.996;2022-09-03T10:03:26;23.60;79.80
20416;DHT22;10367;52.202;5.996;2022-09-03T10:06:01;23.80;78.90
20416;DHT22;10367;52.202;5.996;2022-09-03T10:08:52;23.90;78.20
20416;DHT22;10367;52.202;5.996;2022-09-03T10:11:22;24.00;77.90
20416;DHT22;10367;52.202;5.996;2022-09-03T10:13:54;24.00;77.30
20416;DHT22;10367;52.202;5.996;2022-09-03T10:16:27;24.20;76.90
20416;DHT22;10367;52.202;5.996;2022-09-03T10:19:03;24.40;76.20
20416;DHT22;10367;52.202;5.996;2022-09-03T10:21:40;24.60;74.70
20416;DHT22;10367;52.202;5.996;2022-09-03T10:24:25;24.60;75.40
20416;DHT22;10367;52.202;5.996;2022-09-03T10:26:56;24.80;75.10
20416;DHT22;10367;52.202;5.996;2022-09-03T10:29:25;24.90;73.70
20416;DHT22;10367;52.202;5.996;2022-09-03T10:32:09;25.00;73.00
20416;DHT22;10367;52.202;5.996;2022-09-03T10:34:46;25.00;72.30
20416;DHT22;10367;52.202;5.996;2022-09-03T10:37:22;25.00;72.60
20416;DHT22;10367;52.202;5.996;2022-09-03T10:40:05;24.90;71.80
20416;DHT22;10367;52.202;5.996;2022-09-03T10:42:43;25.10;71.70
20416;DHT22;10367;52.202;5.996;2022-09-03T10:45:30;25.20;72.00
20416;DHT22;10367;52.202;5.996;2022-09-03T10:48:30;25.40;69.70
20416;DHT22;10367;52.202;5.996;2022-09-03T10:51:05;25.60;69.10
20416;DHT22;10367;52.202;5.996;2022-09-03T10:53:49;25.70;68.90
20416;DHT22;10367;52.202;5.996;2022-09-03T10:56:30;25.90;68.70
20416;DHT22;10367;52.202;5.996;2022-09-03T10:59:09;26.10;66.80
20416;DHT22;10367;52.202;5.996;2022-09-03T11:01:52;26.10;67.20
20416;DHT22;10367;52.202;5.996;2022-09-03T11:04:29;26.20;67.30
20416;DHT22;10367;52.202;5.996;2022-09-03T11:07:06;26.40;65.80
20416;DHT22;10367;52.202;5.996;2022-09-03T11:09:38;26.40;66.60
20416;DHT22;10367;52.202;5.996;2022-09-03T11:12:12;26.30;65.50
20416;DHT22;10367;52.202;5.996;2022-09-03T11:14:50;26.10;65.40
20416;DHT22;10367;52.202;5.996;2022-09-03T11:17:25;26.20;65.50
20416;DHT22;10367;52.202;5.996;2022-09-03T11:20:10;26.40;64.60
20416;DHT22;10367;52.202;5.996;2022-09-03T11:22:43;26.50;64.40
20416;DHT22;10367;52.202;5.996;2022-09-03T11:25:14;26.70;64.30
20416;DHT22;10367;52.202;5.996;2022-09-03T11:27:53;27.10;63.90
20416;DHT22;10367;52.202;5.996;2022-09-03T11:30:31;27.20;63.20
20416;DHT22;10367;52.202;5.996;2022-09-03T11:33:07;27.10;62.80
20416;DHT22;10367;52.202;5.996;2022-09-03T11:35:40;26.80;63.20
20416;DHT22;10367;52.202;5.996;2022-09-03T11:38:20;27.10;63.00
20416;DHT22;10367;52.202;5.996;2022-09-03T11:40:57;27.40;62.40
20416;DHT22;10367;52.202;5.996;2022-09-03T11:43:29;27.50;61.40
20416;DHT22;10367;52.202;5.996;2022-09-03T11:46:03;27.50;61.60
20416;DHT22;10367;52.202;5.996;2022-09-03T11:48:38;27.50;61.30
20416;DHT22;10367;52.202;5.996;2022-09-03T11:51:20;27.60;61.20
20416;DHT22;10367;52.202;5.996;2022-09-03T11:53:59;27.90;61.00
20416;DHT22;10367;52.202;5.996;2022-09-03T11:56:30;28.10;60.60
20416;DHT22;10367;52.202;5.996;2022-09-03T11:59:03;28.30;60.50
20416;DHT22;10367;52.202;5.996;2022-09-03T12:01:33;28.30;60.00
20416;DHT22;10367;52.202;5.996;2022-09-03T12:04:05;28.30;59.80
20416;DHT22;10367;52.202;5.996;2022-09-03T12:07:16;28.30;59.80
20416;DHT22;10367;52.202;5.996;2022-09-03T12:13:11;28.50;59.10
20416;DHT22;10367;52.202;5.996;2022-09-03T12:18:47;28.40;58.80
20416;DHT22;10367;52.202;5.996;2022-09-03T12:21:19;28.70;58.50
20416;DHT22;10367;52.202;5.996;2022-09-03T12:23:51;28.70;58.30
20416;DHT22;10367;52.202;5.996;2022-09-03T12:26:26;28.90;57.90
20416;DHT22;10367;52.202;5.996;2022-09-03T12:28:56;29.10;57.60
20416;DHT22;10367;52.202;5.996;2022-09-03T12:31:27;29.20;57.20
20416;DHT22;10367;52.202;5.996;2022-09-03T12:33:58;29.40;57.10
20416;DHT22;10367;52.202;5.996;2022-09-03T12:36:37;29.60;56.90
20416;DHT22;10367;52.202;5.996;2022-09-03T12:39:11;29.90;56.50
20416;DHT22;10367;52.202;5.996;2022-09-03T12:41:54;29.40;56.20
20416;DHT22;10367;52.202;5.996;2022-09-03T12:44:24;29.30;56.20
20416;DHT22;10367;52.202;5.996;2022-09-03T12:47:06;28.90;56.60
20416;DHT22;10367;52.202;5.996;2022-09-03T12:50:04;29.00;56.80
20416;DHT22;10367;52.202;5.996;2022-09-03T12:52:36;28.90;56.80
20416;DHT22;10367;52.202;5.996;2022-09-03T12:55:16;28.70;56.90
20416;DHT22;10367;52.202;5.996;2022-09-03T12:57:49;29.10;56.60
20416;DHT22;10367;52.202;5.996;2022-09-03T13:00:29;29.20;56.10
20416;DHT22;10367;52.202;5.996;2022-09-03T13:03:02;29.30;55.70
20416;DHT22;10367;52.202;5.996;2022-09-03T13:05:35;29.10;55.80
20416;DHT22;10367;52.202;5.996;2022-09-03T13:08:12;29.40;55.50
20416;DHT22;10367;52.202;5.996;2022-09-03T13:10:43;29.50;54.90
20416;DHT22;10367;52.202;5.996;2022-09-03T13:13:21;29.30;55.40
20416;DHT22;10367;52.202;5.996;2022-09-03T13:15:59;29.80;55.20
20416;DHT22;10367;52.202;5.996;2022-09-03T13:18:37;30.10;54.70
20416;DHT22;10367;52.202;5.996;2022-09-03T13:21:15;30.30;54.30
20416;DHT22;10367;52.202;5.996;2022-09-03T13:23:54;30.30;54.50
20416;DHT22;10367;52.202;5.996;2022-09-03T13:26:33;30.30;54.20
20416;DHT22;10367;52.202;5.996;2022-09-03T13:32:02;30.40;54.30
20416;DHT22;10367;52.202;5.996;2022-09-03T13:34:36;30.80;54.00
20416;DHT22;10367;52.202;5.996;2022-09-03T13:37:15;30.70;53.40
20416;DHT22;10367;52.202;5.996;2022-09-03T13:39:53;30.30;53.70
20416;DHT22;10367;52.202;5.996;2022-09-03T13:42:26;30.40;54.80
20416;DHT22;10367;52.202;5.996;2022-09-03T13:45:05;30.80;53.60
20416;DHT22;10367;52.202;5.996;2022-09-03T13:47:43;30.60;53.60
20416;DHT22;10367;52.202;5.996;2022-09-03T13:50:28;30.70;53.60
20416;DHT22;10367;52.202;5.996;2022-09-03T13:53:03;30.80;53.40
20416;DHT22;10367;52.202;5.996;2022-09-03T13:55:36;30.40;53.70
20416;DHT22;10367;52.202;5.996;2022-09-03T13:58:20;30.50;53.60
20416;DHT22;10367;52.202;5.996;2022-09-03T14:01:05;30.50;53.30
20416;DHT22;10367;52.202;5.996;2022-09-03T14:03:42;30.40;53.70
20416;DHT22;10367;52.202;5.996;2022-09-03T14:06:23;30.80;53.30
20416;DHT22;10367;52.202;5.996;2022-09-03T14:09:03;30.90;53.10
20416;DHT22;10367;52.202;5.996;2022-09-03T14:11:43;31.10;52.70
20416;DHT22;10367;52.202;5.996;2022-09-03T14:14:27;31.00;52.70
20416;DHT22;10367;52.202;5.996;2022-09-03T14:17:03;30.60;52.80
20416;DHT22;10367;52.202;5.996;2022-09-03T14:19:39;30.90;52.90
20416;DHT22;10367;52.202;5.996;2022-09-03T14:22:13;31.50;52.20
20416;DHT22;10367;52.202;5.996;2022-09-03T14:24:49;31.20;52.00
20416;DHT22;10367;52.202;5.996;2022-09-03T14:27:23;29.90;53.10
20416;DHT22;10367;52.202;5.996;2022-09-03T14:29:58;28.70;54.40
20416;DHT22;10367;52.202;5.996;2022-09-03T14:32:30;28.60;55.10
20416;DHT22;10367;52.202;5.996;2022-09-03T14:41:09;30.20;52.20
20416;DHT22;10367;52.202;5.996;2022-09-03T14:44:02;29.90;53.30
20416;DHT22;10367;52.202;5.996;2022-09-03T14:46:55;30.40;53.10
20416;DHT22;10367;52.202;5.996;2022-09-03T14:49:50;30.90;52.50
20416;DHT22;10367;52.202;5.996;2022-09-03T14:52:39;31.00;52.00
20416;DHT22;10367;52.202;5.996;2022-09-03T14:55:24;30.50;52.00
20416;DHT22;10367;52.202;5.996;2022-09-03T14:58:12;30.40;53.00
20416;DHT22;10367;52.202;5.996;2022-09-03T15:00:49;31.30;52.40
20416;DHT22;10367;52.202;5.996;2022-09-03T15:03:33;31.90;51.60
20416;DHT22;10367;52.202;5.996;2022-09-03T15:06:13;31.90;51.30
20416;DHT22;10367;52.202;5.996;2022-09-03T15:09:10;31.50;51.80
20416;DHT22;10367;52.202;5.996;2022-09-03T15:11:49;31.20;52.20
20416;DHT22;10367;52.202;5.996;2022-09-03T15:14:25;31.40;52.30
20416;DHT22;10367;52.202;5.996;2022-09-03T15:16:59;31.30;51.70
20416;DHT22;10367;52.202;5.996;2022-09-03T15:19:53;30.80;52.00
20416;DHT22;10367;52.202;5.996;2022-09-03T15:22:34;30.70;52.50
20416;DHT22;10367;52.202;5.996;2022-09-03T15:25:15;31.40;51.70
20416;DHT22;10367;52.202;5.996;2022-09-03T15:27:57;31.70;51.00
20416;DHT22;10367;52.202;5.996;2022-09-03T15:30:34;31.50;50.90
20416;DHT22;10367;52.202;5.996;2022-09-03T15:33:12;30.60;51.90
20416;DHT22;10367;52.202;5.996;2022-09-03T15:35:56;29.90;52.80
20416;DHT22;10367;52.202;5.996;2022-09-03T15:38:36;29.80;53.10
20416;DHT22;10367;52.202;5.996;2022-09-03T15:41:16;29.80;53.10
20416;DHT22;10367;52.202;5.996;2022-09-03T15:43:49;29.40;53.30
20416;DHT22;10367;52.202;5.996;2022-09-03T15:46:38;28.90;53.80
20416;DHT22;10367;52.202;5.996;2022-09-03T15:49:23;28.70;54.50
20416;DHT22;10367;52.202;5.996;2022-09-03T15:52:05;28.70;54.70
20416;DHT22;10367;52.202;5.996;2022-09-03T15:54:42;29.00;54.40
20416;DHT22;10367;52.202;5.996;2022-09-03T15:57:17;28.70;55.00
20416;DHT22;10367;52.202;5.996;2022-09-03T15:59:53;28.80;55.40
20416;DHT22;10367;52.202;5.996;2022-09-03T16:02:30;28.80;55.00
20416;DHT22;10367;52.202;5.996;2022-09-03T16:05:06;28.40;55.40
20416;DHT22;10367;52.202;5.996;2022-09-03T16:08:01;27.80;56.00
20416;DHT22;10367;52.202;5.996;2022-09-03T16:10:40;27.70;56.20
20416;DHT22;10367;52.202;5.996;2022-09-03T16:13:44;28.00;55.90
20416;DHT22;10367;52.202;5.996;2022-09-03T16:16:18;28.10;55.80
20416;DHT22;10367;52.202;5.996;2022-09-03T16:19:00;28.00;55.70
20416;DHT22;10367;52.202;5.996;2022-09-03T16:21:36;27.90;55.80
20416;DHT22;10367;52.202;5.996;2022-09-03T16:24:15;27.80;55.90
20416;DHT22;10367;52.202;5.996;2022-09-03T16:26:50;27.90;55.70
20416;DHT22;10367;52.202;5.996;2022-09-03T16:29:25;27.90;55.80
20416;DHT22;10367;52.202;5.996;2022-09-03T16:32:06;28.00;55.80